Time;durP1;ratioP1;P1;durP2;ratioP2;P2;SDS_P1;SDS_P2;PMS_P1;PMS_P2;Temp;Humidity;BMP_temperature;BMP_pressure;BME280_temperature;BME280_humidity;BME280_pressure;Samples;Min_cycle;Max_cycle;Signal;HPM_P1;HPM_P2
2021/09/25 00:01:33;;;;;;;8.33;7.73;;;15.70;99.90;;;;;;10495630;28;20216;-84
2021/09/25 00:06:36;;;;;;;9.00;8.27;;;15.70;99.90;;;;;;10478070;28;20569;-84
2021/09/25 00:11:39;;;;;;;9.23;8.47;;;15.60;99.90;;;;;;10478162;28;20220;-84
2021/09/25 00:16:41;;;;;;;9.20;8.50;;;15.60;99.90;;;;;;10477500;28;20662;-84
2021/09/25 00:21:43;;;;;;;9.10;8.30;;;15.60;99.90;;;;;;10419016;28;20244;-83
2021/09/25 00:26:47;;;;;;;9.20;8.40;;;15.60;99.90;;;;;;10435635;28;20264;-84
2021/09/25 00:31:49;;;;;;;9.47;8.67;;;15.60;99.90;;;;;;10451916;28;20674;-84
2021/09/25 00:36:51;;;;;;;9.10;7.87;;;15.60;99.90;;;;;;10434906;28;20248;-84
2021/09/25 00:41:55;;;;;;;8.60;7.90;;;15.50;99.90;;;;;;10435037;28;20232;-84
2021/09/25 00:46:58;;;;;;;8.20;7.50;;;15.50;99.90;;;;;;10421191;28;20201;-84
2021/09/25 00:52:00;;;;;;;8.20;7.50;;;15.50;99.90;;;;;;10461373;28;20303;-84
2021/09/25 00:57:04;;;;;;;8.80;8.20;;;15.50;99.90;;;;;;10487162;28;20769;-84
2021/09/25 01:02:07;;;;;;;7.53;6.93;;;15.50;99.90;;;;;;10471830;28;20231;-84
2021/09/25 01:07:09;;;;;;;8.23;7.53;;;15.50;99.90;;;;;;10459490;28;20287;-84
2021/09/25 01:12:12;;;;;;;7.70;7.10;;;15.50;99.90;;;;;;10476677;28;20320;-84
2021/09/25 01:17:15;;;;;;;8.03;7.40;;;15.40;99.90;;;;;;10459430;28;20673;-84
2021/09/25 01:22:18;;;;;;;7.53;7.03;;;15.40;99.90;;;;;;10460152;28;20721;-84
2021/09/25 01:27:21;;;;;;;8.10;7.50;;;15.30;99.90;;;;;;10495354;28;20193;-84
2021/09/25 01:32:23;;;;;;;8.20;7.37;;;15.30;99.90;;;;;;10460696;28;20201;-84
2021/09/25 01:37:30;;;;;;;8.10;7.50;;;15.30;99.90;;;;;;10477286;28;20224;-84
2021/09/25 01:42:32;;;;;;;7.80;7.20;;;15.20;99.90;;;;;;10460757;28;20197;-84
2021/09/25 01:47:34;;;;;;;8.73;8.00;;;15.20;99.90;;;;;;10476779;28;20217;-84
2021/09/25 01:52:38;;;;;;;8.00;7.40;;;15.20;99.90;;;;;;10460826;28;20223;-83
2021/09/25 01:57:40;;;;;;;9.17;8.07;;;15.10;99.90;;;;;;10466296;28;20239;-83
2021/09/25 02:02:42;;;;;;;8.80;7.90;;;15.10;99.90;;;;;;10466054;28;20206;-83
2021/09/25 02:07:46;;;;;;;7.83;7.20;;;15.10;99.90;;;;;;10466024;28;20216;-83
2021/09/25 02:12:48;;;;;;;8.47;7.87;;;15.00;99.90;;;;;;10482680;28;20196;-84
2021/09/25 02:17:50;;;;;;;8.37;7.77;;;15.00;99.90;;;;;;10465287;28;20228;-83
2021/09/25 02:22:54;;;;;;;8.67;7.97;;;15.00;99.90;;;;;;10464619;28;20208;-84
2021/09/25 02:27:56;;;;;;;8.20;7.60;;;15.00;99.90;;;;;;10464611;28;20220;-83
2021/09/25 02:32:58;;;;;;;8.00;7.30;;;14.90;99.90;;;;;;10463239;28;20201;-83
2021/09/25 02:38:01;;;;;;;8.80;8.00;;;14.90;99.90;;;;;;10464075;28;20315;-83
2021/09/25 02:43:04;;;;;;;7.97;7.37;;;14.90;99.90;;;;;;10464035;28;20228;-83
2021/09/25 02:48:06;;;;;;;8.00;7.40;;;14.90;99.90;;;;;;10479840;28;20307;-84
2021/09/25 02:53:10;;;;;;;9.30;8.50;;;14.90;99.90;;;;;;10480333;28;20664;-83
2021/09/25 02:58:12;;;;;;;7.57;6.90;;;14.90;99.90;;;;;;10479822;28;20224;-83
2021/09/25 03:03:14;;;;;;;9.43;8.47;;;14.80;99.90;;;;;;10497579;28;20584;-84
2021/09/25 03:08:17;;;;;;;8.40;7.70;;;14.80;99.90;;;;;;10462492;28;20224;-83
2021/09/25 03:13:19;;;;;;;8.20;7.53;;;14.80;99.90;;;;;;10479288;28;20192;-84
2021/09/25 03:18:21;;;;;;;8.53;7.83;;;14.80;99.90;;;;;;10479794;28;20311;-83
2021/09/25 03:23:25;;;;;;;9.20;8.50;;;14.80;99.90;;;;;;10478267;28;20201;-83
2021/09/25 03:28:27;;;;;;;8.27;7.47;;;14.70;99.90;;;;;;10462000;28;20263;-83
2021/09/25 03:33:31;;;;;;;8.83;8.20;;;14.70;99.90;;;;;;10461560;28;20242;-83
2021/09/25 03:38:34;;;;;;;8.40;7.60;;;14.70;99.90;;;;;;10478284;28;20593;-83
2021/09/25 03:43:36;;;;;;;8.37;7.67;;;14.60;99.90;;;;;;10478199;28;20192;-83
2021/09/25 03:48:38;;;;;;;8.37;7.67;;;14.60;99.90;;;;;;10461109;28;20596;-84
2021/09/25 03:53:42;;;;;;;9.03;8.23;;;14.60;99.90;;;;;;10477898;28;20224;-83
2021/09/25 03:58:44;;;;;;;9.10;8.40;;;14.60;99.90;;;;;;10477704;28;20222;-83
2021/09/25 04:03:46;;;;;;;7.83;7.17;;;14.50;99.90;;;;;;10460572;28;20279;-83
2021/09/25 04:08:49;;;;;;;8.47;7.70;;;14.50;99.90;;;;;;10477190;28;20697;-84
2021/09/25 04:13:51;;;;;;;10.07;9.17;;;14.50;99.90;;;;;;10477166;28;20217;-83
2021/09/25 04:18:54;;;;;;;8.70;8.00;;;14.40;99.90;;;;;;10460368;28;20248;-83
2021/09/25 04:23:57;;;;;;;7.93;7.23;;;14.40;99.90;;;;;;10459495;28;20577;-83
2021/09/25 04:28:59;;;;;;;8.03;7.23;;;14.40;99.90;;;;;;10494307;28;20274;-83
2021/09/25 04:34:02;;;;;;;8.57;7.87;;;14.30;99.90;;;;;;10475953;28;20229;-83
2021/09/25 04:39:06;;;;;;;8.40;7.70;;;14.30;99.90;;;;;;10476565;28;20700;-83
2021/09/25 04:44:13;;;;;;;7.33;6.83;;;14.30;99.90;;;;;;10459607;28;20636;-83
2021/09/25 04:49:16;;;;;;;8.73;7.93;;;14.30;99.90;;;;;;10455316;28;20645;-83
2021/09/25 04:54:20;;;;;;;8.87;8.17;;;14.20;99.90;;;;;;10451226;28;20295;-83
2021/09/25 04:59:22;;;;;;;9.37;8.47;;;14.20;99.90;;;;;;10435276;28;20224;-83
2021/09/25 05:04:24;;;;;;;8.53;7.93;;;14.20;99.90;;;;;;10436331;28;20240;-83
2021/09/25 05:09:28;;;;;;;9.40;8.70;;;14.20;99.90;;;;;;10418933;28;20639;-84
2021/09/25 05:14:30;;;;;;;9.53;8.63;;;14.20;99.90;;;;;;10419002;28;20247;-83
2021/09/25 05:19:32;;;;;;;9.90;8.87;;;14.20;99.90;;;;;;10442935;28;20232;-83
2021/09/25 05:24:36;;;;;;;8.13;7.53;;;14.10;99.90;;;;;;10461084;28;20316;-83
2021/09/25 05:29:38;;;;;;;7.83;7.23;;;14.20;99.90;;;;;;10462695;28;20243;-83
2021/09/25 05:34:42;;;;;;;8.60;7.80;;;14.20;99.90;;;;;;10467852;28;20787;-83
2021/09/25 05:39:45;;;;;;;8.50;7.80;;;14.20;99.90;;;;;;10468403;28;20240;-83
2021/09/25 05:44:48;;;;;;;9.40;8.07;;;14.20;99.90;;;;;;10468246;28;20200;-83
2021/09/25 05:49:50;;;;;;;8.10;7.40;;;14.20;99.90;;;;;;10458944;28;20229;-83
2021/09/25 05:54:53;;;;;;;8.73;8.03;;;14.20;99.90;;;;;;10444181;28;20228;-83
2021/09/25 05:59:55;;;;;;;8.63;7.93;;;14.20;99.90;;;;;;10440695;28;20697;-83
2021/09/25 06:04:58;;;;;;;8.20;7.50;;;14.20;99.90;;;;;;10424406;28;20193;-83
2021/09/25 06:10:01;;;;;;;8.03;7.43;;;14.20;99.90;;;;;;10440506;28;20244;-84
2021/09/25 06:15:03;;;;;;;8.70;8.00;;;14.30;99.90;;;;;;10440807;28;20651;-83
2021/09/25 06:20:07;;;;;;;9.00;8.30;;;14.30;99.90;;;;;;10451521;28;20239;-84
2021/09/25 06:25:11;;;;;;;9.20;8.40;;;14.40;99.90;;;;;;10481283;28;20242;-83
2021/09/25 06:30:13;;;;;;;8.87;8.27;;;14.40;99.90;;;;;;10480910;28;20227;-83
2021/09/25 06:35:16;;;;;;;8.27;7.60;;;14.40;99.90;;;;;;10463867;28;20228;-83
2021/09/25 06:40:20;;;;;;;10.60;9.70;;;14.40;99.90;;;;;;10464259;28;20258;-84
2021/09/25 06:45:22;;;;;;;10.30;9.40;;;14.40;99.90;;;;;;10463430;28;20201;-83
2021/09/25 06:50:24;;;;;;;9.27;8.23;;;14.40;99.90;;;;;;10468867;28;20241;-83
2021/09/25 06:55:28;;;;;;;9.80;8.90;;;14.50;99.90;;;;;;10438719;28;20746;-83
2021/09/25 07:00:30;;;;;;;10.30;9.30;;;14.50;99.90;;;;;;10422514;28;20225;-84
2021/09/25 07:05:32;;;;;;;10.70;9.40;;;14.60;99.90;;;;;;10456371;28;20201;-83
2021/09/25 07:10:36;;;;;;;9.90;8.70;;;14.70;99.90;;;;;;10422265;28;20223;-83
2021/09/25 07:15:40;;;;;;;11.10;8.53;;;14.80;99.90;;;;;;10437777;28;20225;-83
2021/09/25 07:20:43;;;;;;;10.20;9.30;;;14.90;99.90;;;;;;10421311;28;20237;-84
2021/09/25 07:25:47;;;;;;;8.90;8.17;;;15.00;99.90;;;;;;10455448;28;20264;-84
2021/09/25 07:30:50;;;;;;;10.00;7.73;;;15.00;99.90;;;;;;10437342;28;20240;-84
2021/09/25 07:35:52;;;;;;;10.00;9.00;;;15.10;99.90;;;;;;10453745;28;20588;-83
2021/09/25 07:47:01;;;;;;;9.67;8.77;;;15.30;99.90;;;;;;10470396;28;20201;-84
2021/09/25 07:52:08;;;;;;;9.27;8.47;;;15.40;99.90;;;;;;10453805;28;20223;-87
2021/09/25 07:57:12;;;;;;;10.70;9.70;;;15.50;99.90;;;;;;10437778;28;20251;-86
2021/09/25 08:02:17;;;;;;;9.93;9.13;;;15.60;99.90;;;;;;10439706;28;20228;-84
2021/09/25 08:07:22;;;;;;;9.50;8.70;;;15.70;99.90;;;;;;10458293;28;20225;-85
2021/09/25 08:12:27;;;;;;;9.50;8.70;;;15.80;99.90;;;;;;10459713;28;20223;-86
2021/09/25 08:17:39;;;;;;;9.10;8.40;;;16.00;99.90;;;;;;10458666;28;20225;-84
2021/09/25 08:28:16;;;;;;;10.10;9.30;;;16.20;99.90;;;;;;10469392;28;20688;-86
2021/09/25 08:33:24;;;;;;;9.93;9.03;;;16.30;99.90;;;;;;10434453;28;20201;-84
2021/09/25 08:38:30;;;;;;;9.83;9.03;;;16.40;99.90;;;;;;10452872;28;20225;-84
2021/09/25 08:43:36;;;;;;;11.07;9.97;;;16.50;99.90;;;;;;10453543;28;20205;-84
2021/09/25 08:48:41;;;;;;;10.80;9.90;;;16.50;99.90;;;;;;10422346;28;20280;-84
2021/09/25 08:53:43;;;;;;;10.53;9.67;;;16.60;99.90;;;;;;10414253;28;20203;-84
2021/09/25 08:58:48;;;;;;;11.90;9.90;;;16.70;99.90;;;;;;10408338;28;20229;-86
2021/09/25 09:03:53;;;;;;;12.73;9.43;;;16.80;99.90;;;;;;10393761;28;20745;-84
2021/09/25 09:08:57;;;;;;;9.97;9.03;;;16.90;99.90;;;;;;10413679;28;20213;-85
2021/09/25 09:14:01;;;;;;;10.13;9.13;;;17.00;99.90;;;;;;10396200;28;20208;-85
2021/09/25 09:19:04;;;;;;;9.70;8.90;;;17.00;99.90;;;;;;10395605;28;20230;-85
2021/09/25 09:24:10;;;;;;;14.47;8.93;;;17.10;99.90;;;;;;10409867;28;20662;-85
2021/09/25 09:29:12;;;;;;;9.10;8.07;;;17.30;99.90;;;;;;10396599;28;20273;-85
2021/09/25 09:34:16;;;;;;;8.73;8.03;;;17.40;99.90;;;;;;10412244;28;20645;-85
2021/09/25 09:39:23;;;;;;;8.87;7.40;;;17.60;99.90;;;;;;10411764;28;20226;-85
2021/09/25 09:44:28;;;;;;;8.97;8.17;;;17.90;99.90;;;;;;10393710;28;20278;-84
2021/09/25 09:49:34;;;;;;;8.43;7.83;;;18.10;99.90;;;;;;10370259;28;20581;-85
2021/09/25 09:54:38;;;;;;;8.60;7.80;;;18.40;99.90;;;;;;10385428;28;20204;-85
2021/09/25 09:59:47;;;;;;;8.97;8.27;;;18.60;99.90;;;;;;10388055;28;20238;-86
2021/09/25 10:04:51;;;;;;;8.20;7.50;;;18.70;99.90;;;;;;10360042;28;20213;-86
2021/09/25 10:09:54;;;;;;;8.47;7.77;;;18.70;99.90;;;;;;10372903;28;20225;-86
2021/09/25 10:14:56;;;;;;;7.80;7.20;;;18.70;99.90;;;;;;10372201;28;20215;-85
2021/09/25 10:20:00;;;;;;;6.97;6.47;;;18.70;99.90;;;;;;10419198;28;20241;-85
2021/09/25 10:25:06;;;;;;;7.03;6.53;;;18.60;99.90;;;;;;10432525;28;20202;-85
2021/09/25 10:30:10;;;;;;;7.33;6.80;;;18.60;99.90;;;;;;10448733;28;20214;-84
2021/09/25 10:35:16;;;;;;;7.27;6.67;;;18.60;99.90;;;;;;10467606;28;20707;-85
2021/09/25 10:40:20;;;;;;;7.97;7.30;;;18.60;99.90;;;;;;10449663;28;20225;-85
2021/09/25 10:45:25;;;;;;;7.27;6.53;;;18.60;99.90;;;;;;10447581;28;20200;-86
2021/09/25 10:50:29;;;;;;;6.80;6.30;;;18.70;99.90;;;;;;10404908;28;20225;-85
2021/09/25 10:55:35;;;;;;;7.80;6.23;;;18.70;99.90;;;;;;10390799;28;20392;-85
2021/09/25 11:00:48;;;;;;;7.03;6.43;;;18.70;99.90;;;;;;10407868;28;20209;-85
2021/09/25 11:06:05;;;;;;;6.20;5.77;;;18.70;99.90;;;;;;10407602;28;20202;-86
2021/09/25 11:11:09;;;;;;;6.70;6.20;;;18.80;99.90;;;;;;10425601;28;20693;-85
2021/09/25 11:16:11;;;;;;;6.50;6.00;;;18.80;99.90;;;;;;10391122;28;20234;-85
2021/09/25 11:21:16;;;;;;;6.00;5.53;;;18.90;99.90;;;;;;10448372;28;20243;-85
2021/09/25 11:26:18;;;;;;;5.97;5.57;;;19.00;99.90;;;;;;10453642;28;20644;-86
2021/09/25 11:31:20;;;;;;;6.37;5.87;;;19.10;99.90;;;;;;10457471;28;20276;-85
2021/09/25 11:36:23;;;;;;;6.47;5.97;;;19.20;99.90;;;;;;10426448;28;20252;-85
2021/09/25 11:41:26;;;;;;;6.27;5.73;;;19.20;99.90;;;;;;10428114;28;20279;-86
2021/09/25 11:46:28;;;;;;;5.83;5.43;;;19.20;99.90;;;;;;10445489;28;20673;-86
2021/09/25 11:51:32;;;;;;;5.93;5.53;;;19.10;99.90;;;;;;10387315;28;20226;-86
2021/09/25 11:56:34;;;;;;;5.83;5.33;;;19.10;99.90;;;;;;10399794;28;20301;-85
2021/09/25 12:01:37;;;;;;;6.37;5.87;;;19.20;99.90;;;;;;10382105;28;20225;-86
2021/09/25 12:06:53;;;;;;;5.70;5.23;;;19.30;99.90;;;;;;10382114;28;20585;-85
2021/09/25 12:11:55;;;;;;;5.37;4.90;;;19.30;99.90;;;;;;10381651;28;20213;-86
2021/09/25 12:17:01;;;;;;;5.80;5.30;;;19.40;99.90;;;;;;10401366;28;20214;-86
2021/09/25 12:22:06;;;;;;;5.30;4.80;;;19.50;99.90;;;;;;10403791;28;20602;-85
2021/09/25 12:27:08;;;;;;;6.10;5.60;;;19.40;99.90;;;;;;10380548;28;20202;-86
2021/09/25 12:32:11;;;;;;;5.67;5.27;;;19.40;99.90;;;;;;10379782;28;20222;-86
2021/09/25 12:37:14;;;;;;;5.83;5.43;;;19.30;99.90;;;;;;10380617;28;20222;-86
2021/09/25 12:42:25;;;;;;;5.20;4.87;;;19.20;99.90;;;;;;10415044;28;20280;-88
2021/09/25 12:47:31;;;;;;;5.10;4.70;;;19.30;99.90;;;;;;10424220;28;20201;-85
2021/09/25 12:52:37;;;;;;;5.40;5.00;;;19.40;99.90;;;;;;10461483;28;20565;-84
2021/09/25 12:57:42;;;;;;;4.80;4.50;;;19.60;99.90;;;;;;10442653;28;20304;-84
2021/09/25 13:02:44;;;;;;;5.10;4.70;;;19.70;99.90;;;;;;10423336;28;20661;-84
2021/09/25 13:07:51;;;;;;;5.60;5.10;;;19.80;99.90;;;;;;10423789;28;20287;-84
2021/09/25 13:12:55;;;;;;;4.70;4.40;;;19.90;99.90;;;;;;10458284;28;20505;-84
2021/09/25 13:18:01;;;;;;;5.20;4.80;;;20.00;99.90;;;;;;10439992;28;20275;-84
2021/09/25 13:23:08;;;;;;;5.20;4.80;;;20.00;99.90;;;;;;10424310;28;20277;-87
2021/09/25 13:28:11;;;;;;;5.63;5.23;;;20.00;99.90;;;;;;10459263;28;20263;-84
2021/09/25 13:33:13;;;;;;;5.13;4.73;;;20.00;99.90;;;;;;10427249;28;20208;-85
2021/09/25 13:38:16;;;;;;;5.67;5.27;;;20.00;99.90;;;;;;10479758;22;20234;-85
2021/09/25 13:43:18;;;;;;;5.20;4.80;;;20.10;99.90;;;;;;10393012;28;20579;-85
2021/09/25 13:48:21;;;;;;;5.07;4.67;;;20.20;99.90;;;;;;10392600;28;20280;-85
2021/09/25 13:53:24;;;;;;;5.20;4.90;;;20.30;99.90;;;;;;10399623;28;20210;-85
2021/09/25 13:58:27;;;;;;;5.20;4.90;;;20.30;99.90;;;;;;10383723;28;20264;-85
2021/09/25 14:03:33;;;;;;;5.07;4.67;;;20.30;99.90;;;;;;10383552;28;20201;-85
2021/09/25 14:08:36;;;;;;;5.20;4.70;;;20.30;99.90;;;;;;10417790;28;20425;-85
2021/09/25 14:13:39;;;;;;;4.83;4.53;;;20.30;99.90;;;;;;10399150;28;20202;-85
2021/09/25 14:18:43;;;;;;;5.50;4.97;;;20.40;99.90;;;;;;10399119;28;20719;-85
2021/09/25 14:23:47;;;;;;;5.43;5.03;;;20.40;99.90;;;;;;10439810;28;20194;-85
2021/09/25 14:28:49;;;;;;;3.83;3.63;;;20.50;99.90;;;;;;10439652;28;20213;-85
2021/09/25 14:33:51;;;;;;;4.50;4.13;;;20.50;99.90;;;;;;10423644;28;20211;-85
2021/09/25 14:38:55;;;;;;;4.30;3.80;;;20.40;99.90;;;;;;10440744;28;20300;-85
2021/09/25 14:43:57;;;;;;;4.20;4.00;;;20.40;99.90;;;;;;10423441;28;20203;-85
2021/09/25 14:48:59;;;;;;;4.03;3.83;;;20.40;99.90;;;;;;10421053;28;20229;-85
2021/09/25 14:54:04;;;;;;;4.57;4.27;;;20.60;99.90;;;;;;10382149;28;20204;-85
2021/09/25 14:59:06;;;;;;;3.83;3.63;;;20.80;99.90;;;;;;10382028;28;20229;-82
2021/09/25 15:04:08;;;;;;;4.80;4.40;;;21.00;99.90;;;;;;10381636;28;20198;-83
2021/09/25 15:09:11;;;;;;;4.50;4.20;;;21.10;99.90;;;;;;10398245;28;20289;-83
2021/09/25 15:14:14;;;;;;;4.67;4.27;;;21.20;99.90;;;;;;10397884;28;20202;-83
2021/09/25 15:19:16;;;;;;;4.97;4.57;;;21.30;99.90;;;;;;10417593;28;20268;-82
2021/09/25 15:24:19;;;;;;;4.60;4.30;;;21.20;99.90;;;;;;10438128;28;20201;-82
2021/09/25 15:29:22;;;;;;;5.63;5.13;;;21.20;99.90;;;;;;10438413;28;20292;-82
2021/09/25 15:34:24;;;;;;;4.27;3.97;;;21.10;99.90;;;;;;10440907;28;20193;-82
2021/09/25 15:39:28;;;;;;;5.57;4.57;;;21.20;99.90;;;;;;10439766;28;20225;-82
2021/09/25 15:44:30;;;;;;;6.83;4.93;;;21.20;99.90;;;;;;10421144;28;20580;-83
2021/09/25 15:49:32;;;;;;;4.57;4.27;;;21.20;99.90;;;;;;10413948;28;20286;-82
2021/09/25 15:54:35;;;;;;;4.63;4.33;;;21.30;99.90;;;;;;10414258;28;20182;-82
2021/09/25 15:59:38;;;;;;;4.70;4.33;;;21.30;99.90;;;;;;10395781;28;20325;-82
2021/09/25 16:04:40;;;;;;;4.43;4.03;;;21.30;99.90;;;;;;10396339;28;20572;-82
2021/09/25 16:09:44;;;;;;;5.43;5.03;;;21.40;99.90;;;;;;10413157;28;20765;-82
2021/09/25 16:14:47;;;;;;;5.77;5.43;;;21.30;99.90;;;;;;10413264;28;20213;-82
2021/09/25 16:19:50;;;;;;;5.30;4.90;;;21.20;99.90;;;;;;10404955;28;20713;-82
2021/09/25 16:24:53;;;;;;;8.40;7.73;;;21.20;99.90;;;;;;10436390;28;20567;-82
2021/09/25 16:29:55;;;;;;;7.40;6.80;;;21.10;99.90;;;;;;10435635;28;20713;-82
2021/09/25 16:34:58;;;;;;;7.23;6.60;;;21.10;99.90;;;;;;10436457;28;20208;-83
2021/09/25 16:40:01;;;;;;;5.50;5.10;;;21.10;99.90;;;;;;10454446;28;20221;-85
2021/09/25 16:45:04;;;;;;;5.87;5.27;;;21.10;99.90;;;;;;10419380;28;20214;-85
2021/09/25 16:50:07;;;;;;;5.60;5.20;;;21.00;99.90;;;;;;10392237;28;20237;-85
2021/09/25 16:55:11;;;;;;;6.27;5.73;;;21.00;99.90;;;;;;10378595;28;20198;-85
2021/09/25 17:00:14;;;;;;;6.27;5.77;;;20.90;99.90;;;;;;10378270;28;20324;-85
2021/09/25 17:05:17;;;;;;;8.90;6.53;;;20.80;99.90;;;;;;10378243;28;20678;-85
2021/09/25 17:10:21;;;;;;;7.30;6.63;;;20.80;99.90;;;;;;10378350;28;20228;-85
2021/09/25 17:15:23;;;;;;;8.07;7.40;;;20.80;99.90;;;;;;10381609;28;20216;-84
2021/09/25 17:20:26;;;;;;;11.90;10.00;;;20.70;99.90;;;;;;10425342;28;20229;-84
2021/09/25 17:25:30;;;;;;;11.27;8.80;;;20.50;99.90;;;;;;10458535;28;20193;-84
2021/09/25 17:30:32;;;;;;;12.60;11.47;;;20.40;99.90;;;;;;10450120;28;20622;-84
2021/09/25 17:35:34;;;;;;;12.23;11.03;;;20.30;99.90;;;;;;10425995;28;20557;-84
2021/09/25 17:40:40;;;;;;;10.40;9.40;;;20.10;99.90;;;;;;10442550;28;20232;-84
2021/09/25 17:45:42;;;;;;;8.67;7.90;;;20.00;99.90;;;;;;10425554;28;20201;-85
2021/09/25 17:50:45;;;;;;;8.93;8.07;;;19.90;99.90;;;;;;10441664;28;20221;-84
2021/09/25 17:55:48;;;;;;;8.30;7.60;;;19.80;99.90;;;;;;10425026;28;20193;-84
2021/09/25 18:00:51;;;;;;;8.50;7.70;;;19.70;99.90;;;;;;10440779;28;20360;-84
2021/09/25 18:05:53;;;;;;;7.70;6.93;;;19.70;99.90;;;;;;10441189;28;20208;-84
2021/09/25 18:10:57;;;;;;;8.83;8.03;;;19.70;99.90;;;;;;10458580;28;20221;-84
2021/09/25 18:16:00;;;;;;;8.13;7.40;;;19.70;99.90;;;;;;10424046;28;20668;-84
2021/09/25 18:21:02;;;;;;;7.27;6.67;;;19.70;99.90;;;;;;10404675;28;20225;-84
2021/09/25 18:26:05;;;;;;;8.17;7.37;;;19.60;99.90;;;;;;10416680;28;20277;-84
2021/09/25 18:31:07;;;;;;;8.90;8.00;;;19.60;99.90;;;;;;10398910;28;20221;-84
2021/09/25 18:36:10;;;;;;;8.57;7.77;;;19.60;99.90;;;;;;10398752;28;20202;-84
2021/09/25 18:41:14;;;;;;;10.33;7.97;;;19.60;99.90;;;;;;10382894;28;20317;-84
2021/09/25 18:46:16;;;;;;;8.00;7.17;;;19.50;99.90;;;;;;10382179;28;20201;-84
2021/09/25 18:51:18;;;;;;;7.37;6.77;;;19.60;99.90;;;;;;10436592;28;20723;-84
2021/09/25 18:56:22;;;;;;;8.10;7.40;;;19.50;99.90;;;;;;10422730;28;20204;-84
2021/09/25 19:01:24;;;;;;;8.00;7.37;;;19.50;99.90;;;;;;10439409;28;20237;-84
2021/09/25 19:06:27;;;;;;;10.63;9.73;;;19.50;99.90;;;;;;10424243;28;20247;-84
2021/09/25 19:11:31;;;;;;;9.47;8.57;;;19.50;99.90;;;;;;10422521;28;20229;-84
2021/09/25 19:16:35;;;;;;;12.50;9.93;;;19.50;99.90;;;;;;10456915;28;20197;-84
2021/09/25 19:21:37;;;;;;;12.20;10.30;;;19.50;99.90;;;;;;10382377;28;20280;-84
2021/09/25 19:26:40;;;;;;;9.83;9.03;;;19.40;99.90;;;;;;10380908;28;20206;-84
2021/09/25 19:31:43;;;;;;;13.40;12.10;;;19.40;99.90;;;;;;10380828;28;20226;-84
2021/09/25 19:36:47;;;;;;;19.40;17.60;;;19.40;99.90;;;;;;10396883;28;20229;-84
2021/09/25 19:41:50;;;;;;;16.07;14.57;;;19.40;99.90;;;;;;10383265;28;20313;-83
2021/09/25 19:46:52;;;;;;;15.17;13.83;;;19.30;99.90;;;;;;10416215;28;20245;-83
2021/09/25 19:51:55;;;;;;;13.20;12.00;;;19.30;99.90;;;;;;10423076;28;20724;-83
2021/09/25 19:56:59;;;;;;;12.70;11.60;;;19.30;99.90;;;;;;10423168;28;20209;-83
2021/09/25 20:02:01;;;;;;;14.23;12.73;;;19.30;99.90;;;;;;10439233;28;20217;-83
2021/09/25 20:07:03;;;;;;;13.10;11.90;;;19.20;99.90;;;;;;10422155;28;20665;-83
2021/09/25 20:12:08;;;;;;;13.83;12.53;;;19.20;99.90;;;;;;10421134;28;20731;-83
2021/09/25 20:17:10;;;;;;;14.53;13.27;;;19.20;99.90;;;;;;10438099;28;20205;-83
2021/09/25 20:22:14;;;;;;;15.57;13.87;;;19.10;99.90;;;;;;10438158;28;20217;-83
2021/09/25 20:27:18;;;;;;;14.70;13.40;;;19.10;99.90;;;;;;10438062;28;20220;-83
2021/09/25 20:32:20;;;;;;;16.60;15.10;;;19.10;99.90;;;;;;10436264;28;20227;-83
2021/09/25 20:37:22;;;;;;;39.43;35.23;;;19.00;99.90;;;;;;10437401;28;20237;-83
2021/09/25 20:42:26;;;;;;;22.53;20.23;;;19.00;99.90;;;;;;10437190;28;20307;-83
2021/09/25 20:47:28;;;;;;;15.50;14.03;;;19.00;99.90;;;;;;10452771;28;20288;-83
2021/09/25 20:52:30;;;;;;;9.50;8.67;;;19.00;99.90;;;;;;10435277;28;20485;-83
2021/09/25 20:57:34;;;;;;;8.40;7.70;;;18.90;99.90;;;;;;10418342;28;20225;-83
2021/09/25 21:02:36;;;;;;;7.80;7.30;;;18.90;99.90;;;;;;10447680;28;20778;-83
2021/09/25 21:07:38;;;;;;;23.27;21.20;;;18.90;99.90;;;;;;10448531;28;20272;-83
2021/09/25 21:12:42;;;;;;;12.50;11.50;;;19.00;99.90;;;;;;10450083;28;20213;-83
2021/09/25 21:17:44;;;;;;;9.07;8.27;;;19.00;99.90;;;;;;10431726;28;20225;-83
2021/09/25 21:22:46;;;;;;;12.93;9.13;;;18.90;99.90;;;;;;10465950;28;20331;-83
2021/09/25 21:27:50;;;;;;;9.07;8.37;;;18.90;99.90;;;;;;10448823;28;20551;-83
2021/09/25 21:32:53;;;;;;;10.00;9.20;;;18.90;99.90;;;;;;10449112;28;20193;-83
2021/09/25 21:37:55;;;;;;;11.60;10.60;;;18.80;99.90;;;;;;10448444;28;20209;-83
2021/09/25 21:42:58;;;;;;;10.40;9.40;;;18.80;99.90;;;;;;10432653;28;20207;-83
2021/09/25 21:48:01;;;;;;;10.63;9.67;;;18.80;99.90;;;;;;10449009;28;20288;-83
2021/09/25 21:53:04;;;;;;;14.83;13.43;;;18.70;99.90;;;;;;10438543;28;20701;-83
2021/09/25 21:58:09;;;;;;;8.63;7.93;;;18.70;99.90;;;;;;10419742;28;20237;-83
2021/09/25 22:03:11;;;;;;;8.20;7.50;;;18.70;99.90;;;;;;10431869;28;20197;-83
2021/09/25 22:08:17;;;;;;;8.97;8.20;;;18.70;99.90;;;;;;10431269;28;20225;-83
2021/09/25 22:13:21;;;;;;;10.33;9.43;;;18.60;99.90;;;;;;10443430;28;20623;-83
2021/09/25 22:18:24;;;;;;;9.97;9.07;;;18.60;99.90;;;;;;10442673;28;20229;-83
2021/09/25 22:23:27;;;;;;;9.03;8.33;;;18.60;99.90;;;;;;10434216;28;20676;-83
2021/09/25 22:28:30;;;;;;;12.13;11.13;;;18.60;99.90;;;;;;10399789;28;20218;-83
2021/09/25 22:33:34;;;;;;;12.60;11.60;;;18.70;99.90;;;;;;10399543;28;20273;-83
2021/09/25 22:38:38;;;;;;;12.30;11.10;;;18.70;99.90;;;;;;10383585;28;20230;-83
2021/09/25 22:43:43;;;;;;;11.67;10.70;;;18.80;99.90;;;;;;10382942;28;20278;-83
2021/09/25 22:48:46;;;;;;;13.00;11.90;;;18.80;99.90;;;;;;10399199;28;20253;-83
2021/09/25 22:53:48;;;;;;;12.40;11.40;;;18.80;99.90;;;;;;10411487;28;20209;-83
2021/09/25 22:58:52;;;;;;;13.30;12.20;;;18.90;99.90;;;;;;10440121;28;20225;-83
2021/09/25 23:03:54;;;;;;;11.20;10.40;;;18.90;99.90;;;;;;10423201;28;20228;-83
2021/09/25 23:08:56;;;;;;;11.23;10.33;;;18.90;99.90;;;;;;10439335;28;20576;-83
2021/09/25 23:13:59;;;;;;;11.87;10.87;;;19.00;99.90;;;;;;10423181;28;20308;-83
2021/09/25 23:19:01;;;;;;;11.27;10.47;;;18.90;99.90;;;;;;10439179;28;20316;-83
2021/09/25 23:24:04;;;;;;;11.70;10.73;;;18.90;99.90;;;;;;10407425;28;20680;-83
2021/09/25 23:29:08;;;;;;;10.40;9.50;;;19.00;99.90;;;;;;10397182;28;20222;-83
2021/09/25 23:34:10;;;;;;;8.83;8.10;;;18.90;99.90;;;;;;10381004;28;20268;-83
2021/09/25 23:39:12;;;;;;;8.83;8.07;;;19.00;99.90;;;;;;10396884;28;20648;-83
2021/09/25 23:44:16;;;;;;;8.40;7.77;;;19.00;99.90;;;;;;10380150;28;20636;-83
2021/09/25 23:49:18;;;;;;;7.83;7.23;;;19.10;99.90;;;;;;10414318;28;20218;-83
2021/09/25 23:54:20;;;;;;;7.70;7.10;;;19.20;99.90;;;;;;10395849;28;20216;-83
2021/09/25 23:59:23;;;;;;;8.37;7.57;;;19.30;99.90;;;;;;10396737;28;20233;-83
